createdAt,value
2022-12-15T00:02:19.920Z,18.57
2022-12-15T00:05:06.611Z,18.33
2022-12-15T00:07:52.782Z,21.23
2022-12-15T00:10:38.993Z,18.57
2022-12-15T00:13:30.208Z,18.60
2022-12-15T00:16:17.726Z,21.10
2022-12-15T00:19:04.090Z,19.03
2022-12-15T00:21:50.004Z,20.27
2022-12-15T00:24:36.020Z,21.40
2022-12-15T00:27:21.591Z,19.70
2022-12-15T00:30:07.064Z,20.70
2022-12-15T00:32:54.054Z,21.23
2022-12-15T00:35:39.860Z,18.17
2022-12-15T00:38:27.390Z,20.93
2022-12-15T00:40:58.939Z,21.23
2022-12-15T00:43:26.455Z,20.87
2022-12-15T00:46:12.356Z,20.10
2022-12-15T00:48:41.455Z,21.97
2022-12-15T00:51:09.153Z,19.23
2022-12-15T00:53:54.899Z,19.03
2022-12-15T00:56:40.558Z,17.57
2022-12-15T00:59:26.463Z,21.17
2022-12-15T01:02:12.141Z,22.03
2022-12-15T01:04:59.101Z,18.57
2022-12-15T01:07:45.166Z,19.80
2022-12-15T01:10:36.525Z,16.93
2022-12-15T01:13:23.625Z,18.50
2022-12-15T01:16:09.211Z,20.03
2022-12-15T01:18:54.895Z,20.83
2022-12-15T01:21:25.423Z,19.10
2022-12-15T01:23:53.370Z,19.20
2022-12-15T01:26:20.428Z,18.27
2022-12-15T01:28:47.473Z,24.00
2022-12-15T01:31:14.847Z,22.33
2022-12-15T01:33:45.103Z,21.43
2022-12-15T01:36:12.347Z,21.10
2022-12-15T01:38:42.646Z,19.63
2022-12-15T01:41:12.290Z,16.10
2022-12-15T01:43:40.992Z,19.93
2022-12-15T01:46:10.837Z,23.23
2022-12-15T01:48:46.148Z,21.67
2022-12-15T01:51:19.683Z,20.20
2022-12-15T01:53:59.736Z,19.03
2022-12-15T01:56:37.083Z,19.10
2022-12-15T01:59:08.980Z,20.27
2022-12-15T02:01:36.396Z,20.20
2022-12-15T02:04:04.059Z,21.73
2022-12-15T02:06:31.084Z,21.23
2022-12-15T02:09:01.828Z,22.20
2022-12-15T02:11:59.417Z,16.80
2022-12-15T02:14:54.142Z,18.77
2022-12-15T02:17:36.363Z,20.90
2022-12-15T02:20:45.853Z,19.97
2022-12-15T02:24:04.416Z,18.60
2022-12-15T02:27:15.685Z,19.77
2022-12-15T02:30:22.846Z,18.80
2022-12-15T02:33:06.732Z,19.67
2022-12-15T02:35:47.626Z,19.73
2022-12-15T02:38:14.744Z,24.07
2022-12-15T02:40:42.863Z,15.80
2022-12-15T02:43:11.016Z,21.20
2022-12-15T02:45:56.014Z,17.47
2022-12-15T02:48:36.106Z,20.53
2022-12-15T02:51:22.037Z,17.37
2022-12-15T02:54:14.379Z,19.00
2022-12-15T02:56:54.660Z,18.77
2022-12-15T02:59:34.236Z,23.37
2022-12-15T03:02:06.496Z,17.50
2022-12-15T03:04:34.029Z,20.03
2022-12-15T03:07:04.802Z,18.23
2022-12-15T03:09:33.191Z,20.30
2022-12-15T03:12:00.759Z,18.40
2022-12-15T03:14:28.395Z,19.23
2022-12-15T03:16:56.004Z,19.53
2022-12-15T03:19:25.761Z,19.07
2022-12-15T03:21:53.029Z,17.20
2022-12-15T03:24:20.038Z,19.40
2022-12-15T03:26:49.893Z,17.73
2022-12-15T03:29:17.275Z,21.83
2022-12-15T03:31:44.789Z,19.23
2022-12-15T03:34:12.123Z,17.70
2022-12-15T03:36:40.496Z,18.57
2022-12-15T03:39:07.604Z,15.80
2022-12-15T03:41:34.735Z,20.57
2022-12-15T03:44:02.183Z,19.20
2022-12-15T03:46:29.225Z,19.57
2022-12-15T03:48:56.401Z,19.40
2022-12-15T03:51:23.530Z,18.90
2022-12-15T03:53:52.075Z,18.27
2022-12-15T03:56:19.360Z,16.33
2022-12-15T03:58:46.889Z,20.07
2022-12-15T04:01:27.103Z,17.60
2022-12-15T04:04:00.191Z,17.53
2022-12-15T04:06:28.866Z,17.70
2022-12-15T04:08:57.268Z,17.67
2022-12-15T04:11:24.250Z,17.40
2022-12-15T04:13:51.392Z,17.90
2022-12-15T04:16:20.313Z,19.97
2022-12-15T04:19:07.583Z,21.10
2022-12-15T04:21:34.556Z,19.00
2022-12-15T04:24:21.703Z,20.43
2022-12-15T04:27:07.625Z,19.23
2022-12-15T04:29:53.047Z,14.20
2022-12-15T04:32:38.655Z,18.93
2022-12-15T04:35:25.223Z,19.77
2022-12-15T04:38:11.723Z,20.37
2022-12-15T04:40:59.055Z,19.67
2022-12-15T04:43:44.639Z,18.10
2022-12-15T04:46:30.342Z,17.13
2022-12-15T04:49:16.071Z,16.90
2022-12-15T04:52:01.595Z,19.50
2022-12-15T04:54:47.459Z,20.83
2022-12-15T04:57:34.257Z,20.43
2022-12-15T05:00:19.732Z,16.97
2022-12-15T05:03:05.491Z,17.07
2022-12-15T05:05:51.215Z,16.60
2022-12-15T05:08:36.823Z,18.17
2022-12-15T05:11:22.612Z,17.57
2022-12-15T05:14:09.408Z,15.80
2022-12-15T05:16:55.015Z,17.87
2022-12-15T05:19:40.718Z,16.60
2022-12-15T05:22:26.338Z,15.83
2022-12-15T05:25:11.984Z,18.97
2022-12-15T05:27:57.315Z,16.47
2022-12-15T05:30:44.081Z,16.03
2022-12-15T05:33:11.086Z,16.17
2022-12-15T05:35:37.995Z,18.43
2022-12-15T05:38:05.874Z,16.67
2022-12-15T05:40:32.987Z,18.97
2022-12-15T05:43:00.824Z,17.83
2022-12-15T05:45:29.157Z,19.50
2022-12-15T05:47:56.468Z,17.37
2022-12-15T05:50:23.637Z,18.17
2022-12-15T05:52:50.755Z,20.20
2022-12-15T05:55:18.835Z,19.80
2022-12-15T05:57:51.850Z,23.70
2022-12-15T06:00:19.544Z,16.97
2022-12-15T06:02:48.032Z,18.90
2022-12-15T06:05:17.293Z,16.57
2022-12-15T06:07:44.362Z,19.77
2022-12-15T06:10:11.734Z,19.70
2022-12-15T06:12:38.761Z,16.73
2022-12-15T06:15:07.065Z,17.77
2022-12-15T06:17:34.128Z,16.57
2022-12-15T06:20:02.884Z,18.10
2022-12-15T06:22:30.000Z,19.60
2022-12-15T06:24:57.025Z,15.03
2022-12-15T06:27:24.072Z,17.57
2022-12-15T06:29:51.146Z,16.07
2022-12-15T06:32:18.129Z,16.80
2022-12-15T06:34:45.154Z,17.57
2022-12-15T06:37:13.435Z,16.43
2022-12-15T06:39:40.625Z,18.67
2022-12-15T06:42:07.641Z,18.20
2022-12-15T06:44:34.747Z,17.00
2022-12-15T06:47:01.777Z,18.10
2022-12-15T06:49:28.762Z,19.43
2022-12-15T06:51:55.992Z,19.07
2022-12-15T06:54:24.779Z,17.10
2022-12-15T06:56:52.055Z,17.30
2022-12-15T06:59:19.033Z,15.57
2022-12-15T07:01:46.306Z,16.97
2022-12-15T07:04:13.541Z,14.93
2022-12-15T07:06:41.088Z,17.70
2022-12-15T07:09:16.009Z,19.40
2022-12-15T07:11:45.126Z,17.33
2022-12-15T07:14:12.394Z,17.37
2022-12-15T07:16:39.482Z,14.90
2022-12-15T07:19:06.522Z,17.40
2022-12-15T07:21:33.678Z,15.67
2022-12-15T07:24:01.716Z,20.50
2022-12-15T07:26:29.324Z,17.87
2022-12-15T07:28:57.652Z,21.37
2022-12-15T07:31:24.857Z,17.93
2022-12-15T07:33:52.426Z,20.80
2022-12-15T07:36:20.027Z,20.37
2022-12-15T07:38:50.719Z,18.30
2022-12-15T07:41:19.772Z,24.60
2022-12-15T07:43:47.569Z,18.80
2022-12-15T07:46:17.398Z,18.63
2022-12-15T07:48:50.200Z,17.33
2022-12-15T07:51:20.297Z,19.47
2022-12-15T07:53:49.661Z,17.80
2022-12-15T07:56:18.233Z,27.33
2022-12-15T07:58:45.247Z,15.60
2022-12-15T08:01:15.647Z,17.30
2022-12-15T08:03:42.812Z,16.63
2022-12-15T08:06:12.324Z,19.87
2022-12-15T08:08:40.344Z,15.47
2022-12-15T08:11:09.956Z,13.00
2022-12-15T08:16:29.064Z,17.13
2022-12-15T08:18:57.494Z,17.47
2022-12-15T08:21:24.790Z,15.07
2022-12-15T08:23:52.025Z,15.20
2022-12-15T08:26:22.648Z,16.40
2022-12-15T08:28:54.181Z,17.03
2022-12-15T08:31:23.770Z,15.53
2022-12-15T08:33:52.356Z,16.70
2022-12-15T08:36:20.345Z,15.23
2022-12-15T08:38:47.728Z,17.23
2022-12-15T08:41:17.749Z,19.07
2022-12-15T08:43:48.955Z,14.37
2022-12-15T08:46:22.515Z,20.47
2022-12-15T08:48:53.447Z,17.67
2022-12-15T08:51:23.035Z,15.60
2022-12-15T08:53:50.401Z,14.13
2022-12-15T08:56:22.149Z,13.77
2022-12-15T08:58:55.040Z,15.13
2022-12-15T09:01:24.474Z,13.87
2022-12-15T09:03:55.346Z,13.67
2022-12-15T09:06:25.970Z,13.60
2022-12-15T09:08:56.459Z,16.63
2022-12-15T09:11:23.906Z,12.93
2022-12-15T09:13:59.101Z,17.57
2022-12-15T09:16:28.247Z,15.50
2022-12-15T09:19:29.214Z,14.93
2022-12-15T09:21:56.396Z,14.43
2022-12-15T09:24:32.482Z,14.20
2022-12-15T09:27:10.006Z,12.07
2022-12-15T09:29:37.014Z,17.20
2022-12-15T09:32:10.529Z,13.00
2022-12-15T09:34:42.189Z,17.23
2022-12-15T09:37:09.214Z,14.23
2022-12-15T09:42:32.658Z,12.87
2022-12-15T09:45:07.533Z,12.43
2022-12-15T09:47:45.196Z,13.53
2022-12-15T09:50:19.276Z,13.27
2022-12-15T09:52:51.679Z,14.60
2022-12-15T09:55:22.957Z,15.57
2022-12-15T09:57:56.461Z,12.80
2022-12-15T10:00:30.881Z,12.37
2022-12-15T10:03:34.714Z,12.10
2022-12-15T10:06:21.581Z,11.30
2022-12-15T10:08:55.875Z,12.67
2022-12-15T10:11:50.340Z,13.13
2022-12-15T10:14:30.420Z,17.67
2022-12-15T10:17:14.196Z,10.93
2022-12-15T10:19:52.272Z,12.83
2022-12-15T10:22:27.029Z,17.17
2022-12-15T10:25:09.868Z,13.43
2022-12-15T10:28:08.386Z,13.43
2022-12-15T10:30:43.755Z,12.10
2022-12-15T10:33:19.933Z,14.17
2022-12-15T10:35:48.666Z,14.33
2022-12-15T10:38:34.542Z,12.37
2022-12-15T10:41:07.619Z,12.13
2022-12-15T10:43:38.183Z,24.43
2022-12-15T10:46:14.149Z,14.87
2022-12-15T10:48:42.719Z,13.47
2022-12-15T10:51:30.812Z,12.60
2022-12-15T10:54:15.557Z,13.87
2022-12-15T10:56:50.345Z,16.20
2022-12-15T10:59:28.808Z,11.13
2022-12-15T11:02:23.106Z,22.07
2022-12-15T11:04:56.470Z,12.93
2022-12-15T11:07:27.701Z,12.93
2022-12-15T11:10:01.242Z,13.73
2022-12-15T11:12:50.718Z,11.30
2022-12-15T11:15:46.045Z,12.67
2022-12-15T11:18:38.071Z,12.37
2022-12-15T11:21:12.165Z,12.97
2022-12-15T11:24:02.065Z,10.13
2022-12-15T11:26:46.797Z,14.03
2022-12-15T11:29:30.857Z,12.57
2022-12-15T11:34:47.590Z,11.60
2022-12-15T11:37:37.375Z,12.70
2022-12-15T11:40:39.571Z,9.33
2022-12-15T11:43:44.709Z,10.93
2022-12-15T11:46:22.662Z,9.90
2022-12-15T11:49:16.061Z,8.87
2022-12-15T11:51:51.899Z,13.37
2022-12-15T11:54:28.692Z,13.03
2022-12-15T11:57:09.302Z,12.53
2022-12-15T12:00:02.412Z,10.63
2022-12-15T12:02:52.205Z,9.47
2022-12-15T12:05:43.961Z,10.13
2022-12-15T12:08:29.804Z,12.37
2022-12-15T12:11:10.429Z,10.90
2022-12-15T12:13:50.296Z,12.73
2022-12-15T12:16:35.822Z,12.00
2022-12-15T12:19:09.931Z,11.90
2022-12-15T12:21:42.884Z,10.60
2022-12-15T12:24:19.725Z,10.73
2022-12-15T12:26:54.741Z,10.97
2022-12-15T12:29:31.142Z,11.77
2022-12-15T12:32:10.444Z,9.73
2022-12-15T12:35:32.012Z,9.90
2022-12-15T12:38:02.880Z,11.53
2022-12-15T12:40:48.550Z,13.57
2022-12-15T12:43:33.119Z,10.90
2022-12-15T12:46:10.336Z,12.37
2022-12-15T12:48:48.568Z,13.10
2022-12-15T12:51:29.842Z,10.87
2022-12-15T12:53:58.260Z,10.40
2022-12-15T12:56:34.889Z,11.83
2022-12-15T12:59:08.596Z,15.57
2022-12-15T13:01:38.324Z,11.00
2022-12-15T13:04:11.659Z,11.33
2022-12-15T13:07:06.836Z,14.30
2022-12-15T13:09:41.255Z,12.80
2022-12-15T13:12:53.235Z,12.60
2022-12-15T13:15:42.821Z,12.87
2022-12-15T13:18:18.989Z,11.60
2022-12-15T13:20:50.779Z,11.53
2022-12-15T13:23:43.945Z,10.70
2022-12-15T13:26:18.839Z,13.20
2022-12-15T13:28:51.687Z,14.13
2022-12-15T13:31:30.269Z,10.00
2022-12-15T13:34:17.996Z,10.17
2022-12-15T13:37:01.073Z,11.03
2022-12-15T13:40:07.060Z,14.23
2022-12-15T13:42:53.126Z,10.43
2022-12-15T13:45:56.384Z,9.87
2022-12-15T13:51:43.781Z,9.73
2022-12-15T13:54:22.589Z,13.23
2022-12-15T13:57:03.418Z,8.10
2022-12-15T13:59:41.800Z,13.60
2022-12-15T14:02:27.615Z,10.90
2022-12-15T14:05:17.539Z,13.00
2022-12-15T14:07:54.403Z,12.37
2022-12-15T14:10:29.878Z,11.88
2022-12-15T14:13:01.031Z,13.30
2022-12-15T14:15:32.485Z,12.05
2022-12-15T14:18:02.268Z,11.37
2022-12-15T14:20:41.054Z,14.17
2022-12-15T14:23:18.965Z,13.20
2022-12-15T14:25:56.466Z,14.20
2022-12-15T14:28:27.479Z,14.90
2022-12-15T14:31:00.253Z,13.17
2022-12-15T14:36:19.723Z,13.10
2022-12-15T14:38:53.798Z,13.57
2022-12-15T14:41:27.543Z,12.17
2022-12-15T14:44:32.080Z,14.80
2022-12-15T14:46:49.665Z,11.90
2022-12-15T14:49:25.812Z,15.13
2022-12-15T14:52:01.923Z,11.80
2022-12-15T14:54:36.951Z,13.85
2022-12-15T14:57:15.863Z,12.90
2022-12-15T14:59:45.790Z,15.70
2022-12-15T15:02:19.820Z,15.73
2022-12-15T15:03:06.891Z,14.70
2022-12-15T15:03:07.606Z,14.10
2022-12-15T15:04:59.574Z,14.18
2022-12-15T15:07:31.538Z,13.40
2022-12-15T15:10:00.185Z,14.63
2022-12-15T15:12:44.632Z,16.20
2022-12-15T15:15:17.511Z,16.13
2022-12-15T15:17:52.221Z,15.57
2022-12-15T15:20:22.891Z,16.50
2022-12-15T15:23:18.851Z,14.40
2022-12-15T15:25:54.548Z,13.00
2022-12-15T15:29:18.376Z,15.03
2022-12-15T15:32:14.433Z,15.27
2022-12-15T15:34:41.859Z,14.50
2022-12-15T15:37:24.061Z,16.53
2022-12-15T15:39:55.917Z,18.80
2022-12-15T15:42:26.660Z,19.10
2022-12-15T15:45:02.106Z,18.10
2022-12-15T15:47:32.387Z,17.47
2022-12-15T15:50:00.309Z,16.73
2022-12-15T15:52:31.852Z,19.40
2022-12-15T15:54:59.706Z,18.60
2022-12-15T15:57:26.960Z,16.67
2022-12-15T15:59:54.841Z,17.60
2022-12-15T16:02:23.511Z,17.37
2022-12-15T16:04:50.778Z,16.17
2022-12-15T16:07:24.255Z,16.77
2022-12-15T16:09:52.866Z,19.93
2022-12-15T16:12:27.823Z,16.50
2022-12-15T16:14:55.684Z,19.27
2022-12-15T16:17:25.232Z,14.63
2022-12-15T16:19:54.443Z,17.53
2022-12-15T16:22:22.479Z,15.13
2022-12-15T16:24:56.895Z,17.63
2022-12-15T16:27:24.354Z,18.43
2022-12-15T16:29:51.616Z,21.17
2022-12-15T16:32:18.796Z,18.87
2022-12-15T16:34:49.577Z,18.53
2022-12-15T16:37:27.202Z,17.37
2022-12-15T16:39:54.390Z,16.90
2022-12-15T16:42:21.510Z,18.40
2022-12-15T16:44:48.643Z,25.47
2022-12-15T16:47:16.040Z,20.30
2022-12-15T16:49:43.067Z,21.07
2022-12-15T16:52:20.240Z,20.97
2022-12-15T16:54:50.045Z,18.53
2022-12-15T16:57:18.371Z,22.37
2022-12-15T16:59:45.379Z,20.00
2022-12-15T17:02:28.332Z,19.87
2022-12-15T17:04:55.814Z,19.93
2022-12-15T17:07:26.905Z,22.73
2022-12-15T17:10:00.166Z,20.97
2022-12-15T17:12:27.215Z,23.43
2022-12-15T17:14:54.199Z,22.53
2022-12-15T17:17:21.431Z,24.13
2022-12-15T17:20:27.311Z,20.83
2022-12-15T17:22:38.689Z,24.20
2022-12-15T17:25:06.424Z,20.00
2022-12-15T17:27:36.939Z,21.90
2022-12-15T17:30:05.260Z,18.27
2022-12-15T17:32:32.368Z,21.47
2022-12-15T17:34:59.286Z,20.73
2022-12-15T17:37:30.568Z,23.63
2022-12-15T17:40:13.563Z,22.20
2022-12-15T17:42:40.583Z,20.60
2022-12-15T17:45:20.419Z,23.00
2022-12-15T17:47:49.048Z,21.73
2022-12-15T17:50:17.151Z,25.50
2022-12-15T17:52:47.745Z,26.80
2022-12-15T17:55:24.251Z,23.83
2022-12-15T17:57:55.356Z,23.07
2022-12-15T18:00:26.269Z,22.47
2022-12-15T18:02:54.621Z,24.07
2022-12-15T18:05:26.026Z,25.93
2022-12-15T18:07:56.712Z,23.27
2022-12-15T18:10:31.267Z,22.33
2022-12-15T18:12:59.710Z,24.63
2022-12-15T18:15:29.666Z,25.30
2022-12-15T18:17:58.579Z,23.03
2022-12-15T18:20:26.132Z,23.43
2022-12-15T18:22:53.846Z,23.57
2022-12-15T18:25:28.484Z,25.73
2022-12-15T18:27:58.361Z,24.63
2022-12-15T18:30:27.101Z,27.47
2022-12-15T18:32:58.611Z,25.53
2022-12-15T18:35:34.285Z,26.77
2022-12-15T18:38:01.258Z,23.50
2022-12-15T18:40:30.359Z,26.13
2022-12-15T18:42:57.425Z,25.20
2022-12-15T18:45:28.248Z,27.47
2022-12-15T18:47:55.523Z,25.10
2022-12-15T18:50:26.331Z,27.83
2022-12-15T18:52:58.912Z,24.67
2022-12-15T18:55:31.088Z,21.27
2022-12-15T18:58:01.780Z,21.80
2022-12-15T19:00:30.325Z,25.07
2022-12-15T19:03:00.064Z,24.93
2022-12-15T19:05:29.170Z,22.60
2022-12-15T19:08:01.613Z,25.53
2022-12-15T19:10:33.723Z,23.37
2022-12-15T19:13:01.069Z,27.23
2022-12-15T19:15:28.491Z,28.07
2022-12-15T19:18:14.130Z,22.87
2022-12-15T19:21:00.026Z,23.83
2022-12-15T19:23:26.997Z,24.40
2022-12-15T19:25:55.363Z,23.00
2022-12-15T19:28:24.051Z,24.83
2022-12-15T19:30:52.101Z,28.37
2022-12-15T19:33:20.246Z,22.27
2022-12-15T19:35:51.334Z,25.80
2022-12-15T19:38:25.532Z,27.97
2022-12-15T19:40:55.297Z,22.77
2022-12-15T19:43:24.371Z,27.83
2022-12-15T19:45:52.266Z,27.00
2022-12-15T19:48:23.334Z,23.03
2022-12-15T19:50:52.307Z,24.27
2022-12-15T19:53:25.998Z,26.30
2022-12-15T19:55:57.989Z,28.23
2022-12-15T19:58:29.436Z,24.47
2022-12-15T20:01:00.183Z,21.17
2022-12-15T20:03:29.121Z,26.20
2022-12-15T20:05:58.872Z,23.87
2022-12-15T20:08:29.327Z,24.70
2022-12-15T20:10:57.849Z,28.87
2022-12-15T20:13:26.410Z,24.50
2022-12-15T20:15:54.471Z,26.83
2022-12-15T20:18:21.543Z,25.23
2022-12-15T20:20:49.906Z,26.30
2022-12-15T20:23:20.672Z,24.90
2022-12-15T20:25:47.896Z,24.43
2022-12-15T20:28:22.475Z,26.80
2022-12-15T20:30:51.077Z,24.93
2022-12-15T20:33:19.906Z,25.43
2022-12-15T20:35:49.853Z,24.03
2022-12-15T20:38:28.576Z,24.83
2022-12-15T20:40:56.994Z,20.77
2022-12-15T20:43:27.883Z,23.37
2022-12-15T20:46:05.605Z,27.10
2022-12-15T20:48:36.426Z,23.70
2022-12-15T20:51:09.241Z,24.50
2022-12-15T20:53:37.843Z,22.67
2022-12-15T20:56:06.114Z,22.63
2022-12-15T20:58:40.201Z,26.73
2022-12-15T21:01:18.453Z,25.07
2022-12-15T21:03:46.601Z,23.57
2022-12-15T21:06:13.871Z,23.10
2022-12-15T21:08:41.428Z,24.77
2022-12-15T21:11:16.045Z,22.80
2022-12-15T21:13:46.933Z,19.87
2022-12-15T21:16:16.654Z,24.67
2022-12-15T21:21:34.359Z,22.53
2022-12-15T21:24:08.198Z,22.83
2022-12-15T21:26:35.245Z,22.50
2022-12-15T21:29:12.878Z,22.87
2022-12-15T21:31:39.868Z,25.23
2022-12-15T21:34:07.053Z,22.70
2022-12-15T21:36:34.078Z,20.87
2022-12-15T21:39:01.305Z,19.60
2022-12-15T21:41:28.289Z,20.90
2022-12-15T21:43:55.230Z,21.97
2022-12-15T21:46:28.908Z,21.20
2022-12-15T21:49:15.276Z,22.83
2022-12-15T21:51:46.872Z,23.90
2022-12-15T21:54:20.345Z,24.80
2022-12-15T21:56:48.601Z,24.80
2022-12-15T21:59:20.656Z,22.83
2022-12-15T22:01:50.551Z,24.63
2022-12-15T22:04:29.801Z,24.43
2022-12-15T22:06:56.820Z,21.87
2022-12-15T22:09:23.958Z,22.90
2022-12-15T22:11:55.949Z,21.17
2022-12-15T22:14:27.110Z,23.17
2022-12-15T22:16:55.896Z,19.83
2022-12-15T22:19:23.774Z,21.33
2022-12-15T22:21:51.073Z,22.30
2022-12-15T22:24:20.007Z,22.20
2022-12-15T22:26:47.539Z,22.60
2022-12-15T22:29:18.183Z,20.27
2022-12-15T22:31:45.132Z,25.20
2022-12-15T22:34:16.898Z,23.83
2022-12-15T22:36:44.171Z,21.67
2022-12-15T22:39:11.421Z,25.03
2022-12-15T22:41:41.365Z,19.27
2022-12-15T22:44:18.103Z,21.23
2022-12-15T22:46:45.553Z,19.83
2022-12-15T22:49:18.017Z,22.93
2022-12-15T22:51:45.278Z,21.70
2022-12-15T22:54:19.375Z,19.50
2022-12-15T22:56:50.570Z,22.00
2022-12-15T22:59:25.997Z,23.77
2022-12-15T23:01:53.315Z,24.73
2022-12-15T23:04:24.189Z,26.07
2022-12-15T23:06:51.687Z,25.47
2022-12-15T23:09:19.007Z,22.17
2022-12-15T23:11:46.011Z,23.67
2022-12-15T23:14:17.042Z,23.13
2022-12-15T23:16:46.219Z,21.27
2022-12-15T23:19:25.422Z,22.07
2022-12-15T23:21:53.690Z,21.67
2022-12-15T23:24:20.699Z,21.27
2022-12-15T23:26:47.671Z,20.93
2022-12-15T23:29:14.632Z,22.17
2022-12-15T23:31:41.731Z,20.27
2022-12-15T23:34:08.787Z,21.13
2022-12-15T23:36:35.779Z,20.63
2022-12-15T23:39:04.157Z,17.93
2022-12-15T23:41:31.130Z,20.23
2022-12-15T23:43:58.108Z,21.27
2022-12-15T23:46:25.105Z,21.40
2022-12-15T23:48:52.184Z,22.30
2022-12-15T23:51:20.617Z,23.20
2022-12-15T23:53:48.730Z,21.77
2022-12-15T23:56:20.334Z,22.23
2022-12-15T23:58:53.962Z,21.27
